createdAt,value
2018-12-18T00:00:13.405Z,4.30
2018-12-18T00:02:40.929Z,4.30
2018-12-18T00:08:04.813Z,4.30
2018-12-18T00:10:37.791Z,4.30
2018-12-18T00:13:05.258Z,4.40
2018-12-18T00:15:32.709Z,4.40
2018-12-18T00:18:00.203Z,4.40
2018-12-18T00:20:27.637Z,4.40
2018-12-18T00:22:55.066Z,4.40
2018-12-18T00:25:22.510Z,4.40
2018-12-18T00:27:49.976Z,4.40
2018-12-18T00:30:17.491Z,4.40
2018-12-18T00:32:44.945Z,4.40
2018-12-18T00:35:12.404Z,4.50
2018-12-18T00:37:39.842Z,4.40
2018-12-18T00:40:07.392Z,4.50
2018-12-18T00:42:34.865Z,4.50
2018-12-18T00:45:02.312Z,4.50
2018-12-18T00:47:29.776Z,4.60
2018-12-18T00:49:57.235Z,4.60
2018-12-18T00:52:24.691Z,4.70
2018-12-18T00:54:52.147Z,4.70
2018-12-18T00:57:19.606Z,4.70
2018-12-18T00:59:47.038Z,4.70
2018-12-18T01:02:14.524Z,4.80
2018-12-18T01:04:41.978Z,4.80
2018-12-18T01:07:10.462Z,4.80
2018-12-18T01:09:37.891Z,4.90
2018-12-18T01:12:05.432Z,4.90
2018-12-18T01:14:32.947Z,4.90
2018-12-18T01:17:00.510Z,5.00
2018-12-18T01:19:28.001Z,5.00
2018-12-18T01:21:55.462Z,5.00
2018-12-18T01:24:22.922Z,5.00
2018-12-18T01:26:50.350Z,5.10
2018-12-18T01:29:17.807Z,5.10
2018-12-18T01:31:45.257Z,5.10
2018-12-18T01:34:12.712Z,5.10
2018-12-18T01:36:40.230Z,5.20
2018-12-18T01:39:07.731Z,5.20
2018-12-18T01:41:35.182Z,5.30
2018-12-18T01:44:02.716Z,5.30
2018-12-18T01:46:30.179Z,5.30
2018-12-18T01:48:57.643Z,5.40
2018-12-18T01:51:25.107Z,5.40
2018-12-18T01:53:52.570Z,5.50
2018-12-18T01:56:20.022Z,5.50
2018-12-18T01:58:47.483Z,5.50
2018-12-18T02:01:15.002Z,5.60
2018-12-18T02:03:42.454Z,5.50
2018-12-18T02:06:09.986Z,5.60
2018-12-18T02:08:37.423Z,5.50
2018-12-18T02:11:04.870Z,5.60
2018-12-18T02:13:32.351Z,5.60
2018-12-18T02:15:59.790Z,5.60
2018-12-18T02:18:27.430Z,5.60
2018-12-18T02:20:54.874Z,5.60
2018-12-18T02:23:22.334Z,5.60
2018-12-18T02:25:49.770Z,5.60
2018-12-18T02:28:17.227Z,5.60
2018-12-18T02:30:44.652Z,5.60
2018-12-18T02:33:12.107Z,5.60
2018-12-18T02:35:39.544Z,5.60
2018-12-18T02:38:07.004Z,5.60
2018-12-18T02:40:34.527Z,5.60
2018-12-18T02:43:01.984Z,5.60
2018-12-18T02:45:29.447Z,5.60
2018-12-18T02:47:56.908Z,5.60
2018-12-18T02:50:24.362Z,5.60
2018-12-18T02:52:51.819Z,5.60
2018-12-18T02:55:19.264Z,5.60
2018-12-18T02:57:46.714Z,5.60
2018-12-18T03:00:14.219Z,5.60
2018-12-18T03:02:41.683Z,5.60
2018-12-18T03:05:09.126Z,5.60
2018-12-18T03:07:36.611Z,5.70
2018-12-18T03:10:05.335Z,5.60
2018-12-18T03:12:32.851Z,5.70
2018-12-18T03:15:00.307Z,5.60
2018-12-18T03:17:27.758Z,5.60
2018-12-18T03:19:55.206Z,5.70
2018-12-18T03:22:22.659Z,5.70
2018-12-18T03:24:50.104Z,5.60
2018-12-18T03:27:17.556Z,5.70
2018-12-18T03:29:44.996Z,5.60
2018-12-18T03:32:13.304Z,5.60
2018-12-18T03:34:40.852Z,5.70
2018-12-18T03:37:08.337Z,5.60
2018-12-18T03:39:35.859Z,5.70
2018-12-18T03:42:03.404Z,5.70
2018-12-18T03:44:30.885Z,5.70
2018-12-18T03:46:58.359Z,5.70
2018-12-18T03:49:25.799Z,5.70
2018-12-18T03:51:53.271Z,5.70
2018-12-18T03:54:20.781Z,5.70
2018-12-18T03:56:48.303Z,5.70
2018-12-18T03:59:15.772Z,5.80
2018-12-18T04:01:43.192Z,5.80
2018-12-18T04:04:10.648Z,5.80
2018-12-18T04:06:38.619Z,5.70
2018-12-18T04:09:06.284Z,5.80
2018-12-18T04:11:35.662Z,5.80
2018-12-18T04:14:03.244Z,5.80
2018-12-18T04:16:30.699Z,5.80
2018-12-18T04:18:58.155Z,5.80
2018-12-18T04:21:25.651Z,5.80
2018-12-18T04:23:53.084Z,5.80
2018-12-18T04:26:20.547Z,5.80
2018-12-18T04:28:47.986Z,5.80
2018-12-18T04:31:15.431Z,5.80
2018-12-18T04:33:42.899Z,5.80
2018-12-18T04:36:10.451Z,5.80
2018-12-18T04:38:37.919Z,5.80
2018-12-18T04:41:05.357Z,5.80
2018-12-18T04:43:32.815Z,5.80
2018-12-18T04:46:00.273Z,5.80
2018-12-18T04:48:27.920Z,5.80
2018-12-18T04:50:55.347Z,5.80
2018-12-18T04:53:22.778Z,5.80
2018-12-18T04:55:50.236Z,5.80
2018-12-18T04:58:17.699Z,5.80
2018-12-18T05:00:45.146Z,5.80
2018-12-18T05:03:12.711Z,5.80
2018-12-18T05:05:40.274Z,5.80
2018-12-18T05:08:07.796Z,5.80
2018-12-18T05:10:35.276Z,5.80
2018-12-18T05:13:02.714Z,5.80
2018-12-18T05:15:30.226Z,5.80
2018-12-18T05:17:57.698Z,5.70
2018-12-18T05:20:25.231Z,5.70
2018-12-18T05:22:52.711Z,5.70
2018-12-18T05:25:20.167Z,5.70
2018-12-18T05:27:47.618Z,5.70
2018-12-18T05:30:15.096Z,5.70
2018-12-18T05:32:42.535Z,5.70
2018-12-18T05:35:10.080Z,5.70
2018-12-18T05:37:37.514Z,5.70
2018-12-18T05:40:05.740Z,5.70
2018-12-18T05:42:33.191Z,5.70
2018-12-18T05:45:00.658Z,5.70
2018-12-18T05:47:28.086Z,5.70
2018-12-18T05:49:55.547Z,5.70
2018-12-18T05:52:22.999Z,5.70
2018-12-18T05:54:50.439Z,5.70
2018-12-18T05:57:18.028Z,5.70
2018-12-18T05:59:45.484Z,5.70
2018-12-18T06:02:12.942Z,5.70
2018-12-18T06:04:40.385Z,5.70
2018-12-18T06:07:07.855Z,5.60
2018-12-18T06:09:35.303Z,5.70
2018-12-18T06:12:02.747Z,5.70
2018-12-18T06:14:30.251Z,5.70
2018-12-18T06:16:57.707Z,5.70
2018-12-18T06:19:25.143Z,5.70
2018-12-18T06:21:52.600Z,5.70
2018-12-18T06:24:20.068Z,5.70
2018-12-18T06:26:47.496Z,5.70
2018-12-18T06:29:14.951Z,5.70
2018-12-18T06:31:42.394Z,5.70
2018-12-18T06:34:09.850Z,5.70
2018-12-18T06:36:37.286Z,5.70
2018-12-18T06:39:06.261Z,5.70
2018-12-18T06:41:33.751Z,5.70
2018-12-18T06:44:01.189Z,5.70
2018-12-18T06:46:28.647Z,5.70
2018-12-18T06:48:56.145Z,5.70
2018-12-18T06:51:23.583Z,5.70
2018-12-18T06:53:51.033Z,5.70
2018-12-18T06:56:18.482Z,5.70
2018-12-18T06:58:45.915Z,5.70
2018-12-18T07:01:13.363Z,5.70
2018-12-18T07:03:40.808Z,5.70
2018-12-18T07:06:08.335Z,5.70
2018-12-18T07:08:35.781Z,5.70
2018-12-18T07:11:03.228Z,5.70
2018-12-18T07:13:30.684Z,5.70
2018-12-18T07:15:58.140Z,5.70
2018-12-18T07:18:25.599Z,5.70
2018-12-18T07:20:53.022Z,5.70
2018-12-18T07:23:20.451Z,5.70
2018-12-18T07:25:47.902Z,5.70
2018-12-18T07:28:15.334Z,5.70
2018-12-18T07:30:42.836Z,5.70
2018-12-18T07:33:10.281Z,5.70
2018-12-18T07:35:37.734Z,5.70
2018-12-18T07:38:05.183Z,5.70
2018-12-18T07:40:32.615Z,5.70
2018-12-18T07:43:00.070Z,5.70
2018-12-18T07:45:27.531Z,5.70
2018-12-18T07:47:54.977Z,5.70
2018-12-18T07:50:22.437Z,5.70
2018-12-18T07:52:49.868Z,5.70
2018-12-18T07:55:17.318Z,5.70
2018-12-18T07:57:44.772Z,5.70
2018-12-18T08:00:12.219Z,5.70
2018-12-18T08:02:39.664Z,5.70
2018-12-18T08:05:07.170Z,5.70
2018-12-18T08:07:34.642Z,5.70
2018-12-18T08:10:02.079Z,5.70
2018-12-18T08:12:29.525Z,5.70
2018-12-18T08:14:56.971Z,5.70
2018-12-18T08:17:24.432Z,5.70
2018-12-18T08:19:51.903Z,5.70
2018-12-18T08:22:19.936Z,5.70
2018-12-18T08:24:47.398Z,5.80
2018-12-18T08:27:14.879Z,5.80
2018-12-18T08:29:42.402Z,5.80
2018-12-18T08:32:09.886Z,5.80
2018-12-18T08:34:37.343Z,5.80
2018-12-18T08:37:04.779Z,5.90
2018-12-18T08:39:32.245Z,5.80
2018-12-18T08:41:59.851Z,5.90
2018-12-18T08:44:27.328Z,5.90
2018-12-18T08:46:54.783Z,5.90
2018-12-18T08:49:22.302Z,5.90
2018-12-18T08:51:49.758Z,5.90
2018-12-18T08:54:17.178Z,5.90
2018-12-18T08:56:44.636Z,5.90
2018-12-18T08:59:12.079Z,5.90
2018-12-18T09:01:39.539Z,5.90
2018-12-18T09:04:06.990Z,5.90
2018-12-18T09:06:34.442Z,6.00
2018-12-18T09:09:01.891Z,6.00
2018-12-18T09:11:29.551Z,6.00
2018-12-18T09:13:56.979Z,6.00
2018-12-18T09:16:30.218Z,6.00
2018-12-18T09:18:57.650Z,6.00
2018-12-18T09:21:25.103Z,6.00
2018-12-18T09:23:52.547Z,6.10
2018-12-18T09:26:19.980Z,6.10
2018-12-18T09:28:47.438Z,6.10
2018-12-18T09:31:14.875Z,6.10
2018-12-18T09:33:42.319Z,6.10
2018-12-18T09:36:09.766Z,6.10
2018-12-18T09:38:42.923Z,6.20
2018-12-18T09:41:15.980Z,6.20
2018-12-18T09:43:49.103Z,6.20
2018-12-18T09:46:16.536Z,6.30
2018-12-18T09:48:43.986Z,6.30
2018-12-18T09:51:11.511Z,6.40
2018-12-18T09:53:38.970Z,6.40
2018-12-18T09:56:06.467Z,6.40
2018-12-18T09:58:33.895Z,6.50
2018-12-18T10:01:01.477Z,6.50
2018-12-18T10:03:33.526Z,6.50
2018-12-18T10:05:58.473Z,6.50
2018-12-18T10:08:25.987Z,6.60
2018-12-18T10:10:53.432Z,6.60
2018-12-18T10:13:20.870Z,6.70
2018-12-18T10:15:48.328Z,6.80
2018-12-18T10:18:15.759Z,6.80
2018-12-18T10:20:43.198Z,6.90
2018-12-18T10:23:10.708Z,6.90
2018-12-18T10:25:38.235Z,7.00
2018-12-18T10:28:05.719Z,7.00
2018-12-18T10:30:33.196Z,7.10
2018-12-18T10:33:00.648Z,7.10
2018-12-18T10:35:28.075Z,7.10
2018-12-18T10:37:55.499Z,7.10
2018-12-18T10:40:22.975Z,7.00
2018-12-18T10:42:50.432Z,7.10
2018-12-18T10:45:17.931Z,7.10
2018-12-18T10:47:45.387Z,7.00
2018-12-18T10:50:12.894Z,7.00
2018-12-18T10:52:40.345Z,7.00
2018-12-18T10:55:07.855Z,7.00
2018-12-18T10:57:35.377Z,7.00
2018-12-18T11:00:07.189Z,7.00
2018-12-18T11:02:34.666Z,7.00
2018-12-18T11:05:02.248Z,7.00
2018-12-18T11:07:29.687Z,7.00
2018-12-18T11:09:57.147Z,7.00
2018-12-18T11:12:30.335Z,7.00
2018-12-18T11:14:57.775Z,7.00
2018-12-18T11:17:25.219Z,6.90
2018-12-18T11:19:52.686Z,7.00
2018-12-18T11:22:20.145Z,7.00
2018-12-18T11:24:47.636Z,7.10
2018-12-18T11:27:15.060Z,7.10
2018-12-18T11:29:42.516Z,7.20
2018-12-18T11:32:10.063Z,7.20
2018-12-18T11:34:37.535Z,7.20
2018-12-18T11:37:04.989Z,7.30
2018-12-18T11:39:32.448Z,7.30
2018-12-18T11:41:59.951Z,7.30
2018-12-18T11:44:27.406Z,7.30
2018-12-18T11:46:55.265Z,7.30
2018-12-18T11:49:22.711Z,7.20
2018-12-18T11:51:50.166Z,7.20
2018-12-18T11:54:17.623Z,7.20
2018-12-18T11:56:45.100Z,7.20
2018-12-18T11:59:12.571Z,7.20
2018-12-18T12:01:40.011Z,7.20
2018-12-18T12:04:07.447Z,7.20
2018-12-18T12:06:34.975Z,7.20
2018-12-18T12:09:04.794Z,7.20
2018-12-18T12:11:32.252Z,7.20
2018-12-18T12:13:59.682Z,7.20
2018-12-18T12:16:27.127Z,7.20
2018-12-18T12:18:54.603Z,7.20
2018-12-18T12:21:22.040Z,7.10
2018-12-18T12:23:49.494Z,7.20
2018-12-18T12:26:22.472Z,7.20
2018-12-18T12:28:49.928Z,7.10
2018-12-18T12:31:17.377Z,7.20
2018-12-18T12:33:44.855Z,7.20
2018-12-18T12:36:12.311Z,7.20
2018-12-18T12:38:39.747Z,7.20
2018-12-18T12:41:07.227Z,7.20
2018-12-18T12:43:34.662Z,7.20
2018-12-18T12:46:02.144Z,7.20
2018-12-18T12:48:31.560Z,7.20
2018-12-18T12:50:58.999Z,7.20
2018-12-18T12:53:26.452Z,7.20
2018-12-18T12:55:53.898Z,7.20
2018-12-18T12:58:21.361Z,7.20
2018-12-18T13:00:48.807Z,7.20
2018-12-18T13:03:16.250Z,7.30
2018-12-18T13:05:43.845Z,7.30
2018-12-18T13:08:11.283Z,7.30
2018-12-18T13:10:38.767Z,7.30
2018-12-18T13:13:06.253Z,7.20
2018-12-18T13:15:33.699Z,7.20
2018-12-18T13:18:01.138Z,7.20
2018-12-18T13:20:28.700Z,7.20
2018-12-18T13:22:56.163Z,7.20
2018-12-18T13:25:23.642Z,7.20
2018-12-18T13:27:51.109Z,7.20
2018-12-18T13:30:18.578Z,7.20
2018-12-18T13:32:46.034Z,7.20
2018-12-18T13:35:13.608Z,7.20
2018-12-18T13:37:41.057Z,7.10
2018-12-18T13:40:08.512Z,7.10
2018-12-18T13:42:35.991Z,7.10
2018-12-18T13:45:03.643Z,7.00
2018-12-18T13:47:31.083Z,7.00
2018-12-18T13:49:58.554Z,7.00
2018-12-18T13:52:25.993Z,7.00
2018-12-18T13:54:53.420Z,7.00
2018-12-18T13:57:20.890Z,6.90
2018-12-18T13:59:48.327Z,6.90
2018-12-18T14:02:15.784Z,6.90
2018-12-18T14:04:43.231Z,6.90
2018-12-18T14:07:10.671Z,6.90
2018-12-18T14:09:38.461Z,6.80
2018-12-18T14:12:05.910Z,6.80
2018-12-18T14:14:33.334Z,6.80
2018-12-18T14:17:00.972Z,6.70
2018-12-18T14:19:28.435Z,6.70
2018-12-18T14:21:55.904Z,6.60
2018-12-18T14:24:23.354Z,6.60
2018-12-18T14:26:50.807Z,6.60
2018-12-18T14:29:18.260Z,6.50
2018-12-18T14:31:45.688Z,6.50
2018-12-18T14:34:13.130Z,6.40
2018-12-18T14:36:40.574Z,6.30
2018-12-18T14:39:08.046Z,6.30
2018-12-18T14:41:35.459Z,6.30
2018-12-18T14:44:02.988Z,6.20
2018-12-18T14:46:30.403Z,6.10
2018-12-18T14:48:57.830Z,6.10
2018-12-18T14:51:25.287Z,6.10
2018-12-18T14:53:52.742Z,6.00
2018-12-18T14:56:20.295Z,6.00
2018-12-18T14:58:47.751Z,6.00
2018-12-18T15:01:15.184Z,6.00
2018-12-18T15:03:42.632Z,6.00
2018-12-18T15:06:10.090Z,6.00
2018-12-18T15:08:37.526Z,6.00
2018-12-18T15:11:04.972Z,6.00
2018-12-18T15:13:32.451Z,6.00
2018-12-18T15:15:59.888Z,6.00
2018-12-18T15:18:27.412Z,6.00
2018-12-18T15:20:54.891Z,6.00
2018-12-18T15:23:22.328Z,6.00
2018-12-18T15:25:49.826Z,6.00
2018-12-18T15:28:17.448Z,6.00
2018-12-18T15:30:44.966Z,6.00
2018-12-18T15:33:12.399Z,6.00
2018-12-18T15:35:39.866Z,6.00
2018-12-18T15:38:07.314Z,6.00
2018-12-18T15:40:34.988Z,6.00
2018-12-18T15:43:02.427Z,6.00
2018-12-18T15:45:29.879Z,6.00
2018-12-18T15:47:57.331Z,6.00
2018-12-18T15:50:24.791Z,6.00
2018-12-18T15:52:52.248Z,6.00
2018-12-18T15:55:19.719Z,6.00
2018-12-18T15:57:47.162Z,6.00
2018-12-18T16:00:14.666Z,6.00
2018-12-18T16:02:42.111Z,5.90
2018-12-18T16:05:09.551Z,6.00
2018-12-18T16:07:36.995Z,5.90
2018-12-18T16:10:05.515Z,5.90
2018-12-18T16:12:33.058Z,5.90
2018-12-18T16:15:00.506Z,5.90
2018-12-18T16:17:27.939Z,5.90
2018-12-18T16:19:55.433Z,5.90
2018-12-18T16:22:22.890Z,5.80
2018-12-18T16:24:50.335Z,5.90
2018-12-18T16:27:17.828Z,5.90
2018-12-18T16:29:45.327Z,5.80
2018-12-18T16:32:12.769Z,5.80
2018-12-18T16:34:40.258Z,5.80
2018-12-18T16:37:07.799Z,5.80
2018-12-18T16:39:35.260Z,5.90
2018-12-18T16:42:02.714Z,5.90
2018-12-18T16:44:30.182Z,5.90
2018-12-18T16:46:57.619Z,5.90
2018-12-18T16:49:25.076Z,5.90
2018-12-18T16:51:52.570Z,5.90
2018-12-18T16:54:20.518Z,6.00
2018-12-18T16:56:48.484Z,6.00
2018-12-18T16:59:15.931Z,6.00
2018-12-18T17:01:43.398Z,5.90
2018-12-18T17:04:10.843Z,5.90
2018-12-18T17:06:38.304Z,5.90
2018-12-18T17:09:06.762Z,5.90
2018-12-18T17:11:34.192Z,5.90
2018-12-18T17:14:02.434Z,6.00
2018-12-18T17:16:30.011Z,5.90
2018-12-18T17:18:57.467Z,5.80
2018-12-18T17:21:24.918Z,5.80
2018-12-18T17:23:52.398Z,5.70
2018-12-18T17:26:19.828Z,5.60
2018-12-18T17:28:47.274Z,5.60
2018-12-18T17:31:14.716Z,5.50
2018-12-18T17:33:42.173Z,5.40
2018-12-18T17:36:09.615Z,5.30
2018-12-18T17:38:37.044Z,5.20
2018-12-18T17:41:04.571Z,5.20
2018-12-18T17:43:32.562Z,5.10
2018-12-18T17:46:00.021Z,5.00
2018-12-18T17:48:27.470Z,5.00
2018-12-18T17:50:54.928Z,4.90
2018-12-18T17:53:22.385Z,4.90
2018-12-18T17:55:49.822Z,4.80
2018-12-18T17:58:17.315Z,4.70
2018-12-18T18:00:44.802Z,4.70
2018-12-18T18:03:12.231Z,4.60
2018-12-18T18:05:39.736Z,4.60
2018-12-18T18:08:08.207Z,4.50
2018-12-18T18:10:35.715Z,4.50
2018-12-18T18:13:03.239Z,4.50
2018-12-18T18:15:30.747Z,4.40
2018-12-18T18:17:58.246Z,4.30
2018-12-18T18:20:26.256Z,4.30
2018-12-18T18:22:53.715Z,4.20
2018-12-18T18:25:21.235Z,4.20
2018-12-18T18:27:48.690Z,4.20
2018-12-18T18:30:16.122Z,4.20
2018-12-18T18:32:43.610Z,4.10
2018-12-18T18:35:11.132Z,4.10
2018-12-18T18:37:38.592Z,4.10
2018-12-18T18:40:07.495Z,4.10
2018-12-18T18:42:35.030Z,4.00
2018-12-18T18:45:02.506Z,4.00
2018-12-18T18:47:29.975Z,3.90
2018-12-18T18:49:57.519Z,3.90
2018-12-18T18:52:24.947Z,3.90
2018-12-18T18:54:52.396Z,3.80
2018-12-18T18:57:19.931Z,3.80
2018-12-18T18:59:47.387Z,3.80
2018-12-18T19:02:14.880Z,3.80
2018-12-18T19:04:42.341Z,3.70
2018-12-18T19:07:09.798Z,3.70
2018-12-18T19:09:37.251Z,3.70
2018-12-18T19:12:04.675Z,3.60
2018-12-18T19:14:32.229Z,3.60
2018-12-18T19:16:59.724Z,3.60
2018-12-18T19:19:27.160Z,3.60
2018-12-18T19:21:54.618Z,3.50
2018-12-18T19:24:22.193Z,3.50
2018-12-18T19:26:49.675Z,3.50
2018-12-18T19:29:17.115Z,3.50
2018-12-18T19:31:44.571Z,3.40
2018-12-18T19:34:12.060Z,3.40
2018-12-18T19:36:39.659Z,3.40
2018-12-18T19:39:07.863Z,3.40
2018-12-18T19:41:35.302Z,3.40
2018-12-18T19:44:02.797Z,3.40
2018-12-18T19:46:30.226Z,3.30
2018-12-18T19:48:57.691Z,3.30
2018-12-18T19:51:25.168Z,3.30
2018-12-18T19:53:52.683Z,3.30
2018-12-18T19:56:20.107Z,3.30
2018-12-18T19:58:47.564Z,3.20
2018-12-18T20:01:14.999Z,3.30
2018-12-18T20:03:42.457Z,3.30
2018-12-18T20:06:09.987Z,3.30
2018-12-18T20:08:37.447Z,3.20
2018-12-18T20:11:05.013Z,3.20
2018-12-18T20:13:32.463Z,3.20
2018-12-18T20:15:59.909Z,3.20
2018-12-18T20:18:27.402Z,3.20
2018-12-18T20:20:54.835Z,3.20
2018-12-18T20:23:22.324Z,3.20
2018-12-18T20:25:50.318Z,3.20
2018-12-18T20:28:17.775Z,3.10
2018-12-18T20:30:45.359Z,3.10
2018-12-18T20:33:12.868Z,3.10
2018-12-18T20:35:40.311Z,3.10
2018-12-18T20:38:07.911Z,3.00
2018-12-18T20:40:35.355Z,3.00
2018-12-18T20:43:02.874Z,3.00
2018-12-18T20:45:30.307Z,3.00
2018-12-18T20:47:57.744Z,3.00
2018-12-18T20:50:25.190Z,3.00
2018-12-18T20:52:52.630Z,2.90
2018-12-18T20:55:20.094Z,2.90
2018-12-18T20:57:47.543Z,2.90
2018-12-18T21:00:15.138Z,2.90
2018-12-18T21:02:42.684Z,2.90
2018-12-18T21:05:10.451Z,2.90
2018-12-18T21:07:37.895Z,2.90
2018-12-18T21:10:06.250Z,2.90
2018-12-18T21:12:33.750Z,2.90
2018-12-18T21:15:01.188Z,2.90
2018-12-18T21:17:28.635Z,2.90
2018-12-18T21:19:56.146Z,2.80
2018-12-18T21:22:23.606Z,2.80
2018-12-18T21:24:51.095Z,2.80
2018-12-18T21:27:18.553Z,2.80
2018-12-18T21:29:46.019Z,2.70
2018-12-18T21:32:13.466Z,2.70
2018-12-18T21:34:40.920Z,2.70
2018-12-18T21:37:08.395Z,2.70
2018-12-18T21:39:35.846Z,2.60
2018-12-18T21:42:03.328Z,2.60
2018-12-18T21:44:30.833Z,2.60
2018-12-18T21:46:58.281Z,2.60
2018-12-18T21:49:25.896Z,2.60
2018-12-18T21:51:53.610Z,2.50
2018-12-18T21:54:21.120Z,2.50
2018-12-18T21:56:48.575Z,2.50
2018-12-18T21:59:16.075Z,2.50
2018-12-18T22:01:43.509Z,2.50
2018-12-18T22:04:10.943Z,2.40
2018-12-18T22:06:38.379Z,2.40
2018-12-18T22:09:06.957Z,2.40
2018-12-18T22:11:34.507Z,2.40
2018-12-18T22:14:01.960Z,2.40
2018-12-18T22:16:29.503Z,2.40
2018-12-18T22:18:57.039Z,2.40
2018-12-18T22:21:24.483Z,2.40
2018-12-18T22:23:51.931Z,2.30
2018-12-18T22:26:19.380Z,2.30
2018-12-18T22:28:46.839Z,2.30
2018-12-18T22:31:14.275Z,2.40
2018-12-18T22:33:41.739Z,2.40
2018-12-18T22:36:09.167Z,2.30
2018-12-18T22:38:36.620Z,2.40
2018-12-18T22:41:04.055Z,2.30
2018-12-18T22:43:31.488Z,2.30
2018-12-18T22:45:58.931Z,2.30
2018-12-18T22:48:26.381Z,2.30
2018-12-18T22:50:53.908Z,2.30
2018-12-18T22:53:21.372Z,2.30
2018-12-18T22:55:48.796Z,2.30
2018-12-18T22:58:16.242Z,2.20
2018-12-18T23:03:51.482Z,2.20
2018-12-18T23:06:18.931Z,2.20
2018-12-18T23:08:50.168Z,2.20
2018-12-18T23:11:15.870Z,2.20
2018-12-18T23:13:43.295Z,2.30
2018-12-18T23:16:10.730Z,2.20
2018-12-18T23:18:38.214Z,2.30
2018-12-18T23:21:05.754Z,2.30
2018-12-18T23:23:33.191Z,2.30
2018-12-18T23:26:00.647Z,2.30
2018-12-18T23:28:28.101Z,2.30
2018-12-18T23:30:55.539Z,2.30
2018-12-18T23:33:22.999Z,2.30
2018-12-18T23:35:50.432Z,2.30
2018-12-18T23:38:17.850Z,2.30
2018-12-18T23:40:45.303Z,2.30
2018-12-18T23:43:12.844Z,2.20
2018-12-18T23:45:40.299Z,2.30
2018-12-18T23:48:07.754Z,2.20
2018-12-18T23:50:35.194Z,2.20
2018-12-18T23:53:02.737Z,2.20
2018-12-18T23:55:30.200Z,2.20
2018-12-18T23:57:57.659Z,2.20
